Total volume
$3,239
Trades
256
Unique wallets
152
Liquidity
$6,735
Latest YES mid
51¢
Latest NO mid
49¢
End date
2026-05-06
First seen
2026-05-06
last 05-06 22:46
Cohort breakdown
who's buying — by wallet tier SMI: -8.9¢ (top1%: 20% YES on $417 vs crowd: 29% YES on $1.7K)
By volume tier
Tier Wallets YES buy NO buy Net bias
🐬 Dolphin 2 $2 $95 $93
🐟 Fish 9 $16 $117 $101
🦐 Shrimp 141 $464 $996 $531
By P&L percentile
Tier Wallets YES buy NO buy Net bias
🎯 Top 1% 15 $82 $336 $254
🏆 Top 5% 18 $74 $95 $21
✅ Top 10% 16 $11 $84 $73
Median 17 $86 $82 +$3
Below median 15 $23 $6 +$16
⚠️ Bottom 10% 11 $32 $37 $5
🔻 Bottom 5% 16 $13 $164 $151
💀 Bottom 1% 5 $2 $50 $48
unranked 39 $160 $353 $193
Wallet Side Net shares Cost basis Volume Trades Last activity
Safe-Till-Kayak 0x124c…7f95 Up +322 $100 $100 1 05-06 22:46
Small-Mezzanine 0xd677…e2b5 Down +233 $160 $160 4 05-06 22:46
Monumental-Placode-Picnic 0x3115…f1dd Up +216 $80 $80 1 05-06 22:46
Austere-Delivery 0xe6f2…afa3 Down +164 $100 $100 1 05-06 22:46
Excitable-Silica 0x8aa4…d419 Down +143 $100 $100 1 05-06 22:46
Popular-Insurrection 0xeebd…ba30 Down +140 $95 $95 3 05-06 22:46
Plush-Record-Dignity 0x315a…222e Up +135 $46 $46 27 05-06 22:46
Upbeat-Necktie 0x48ea…3e30 Down +119 $76 $76 14 05-06 22:46
Intentional-Coincidence 0xcbd5…f18c Up +100 $40 $40 1 05-06 22:46
Upset-Sight 0xe022…6603 Down +80 $55 $55 4 05-06 22:46
Electric-Inventor 0xf370…4f88 Down +75 $52 $52 1 05-06 22:46
Marvelous-Installation 0xefd1…c520 Up +74 $20 $20 1 05-06 22:46
Decimal-Suspension 0x98dc…e3f0 Up +65 $20 $20 1 05-06 22:46
Gracious-Cold 0x92b6…347c Down +63 $45 $45 2 05-06 22:46
Novel-Morbid 0x4766…5a03 Down +60 $40 $40 3 05-06 22:46
Monstrous-Dew 0x5b63…11a4 Up +60 $16 $16 1 05-06 22:46
Repulsive-Sustainment 0xa2e7…1b5b Down +57 $40 $40 1 05-06 22:46
Insistent-Hole 0xd85e…6f11 Down +50 $36 $36 1 05-06 22:46
Obvious-Harmonica 0x295b…dc60 Down +50 $36 $36 1 05-06 22:46
Tempting-Bow 0xed0c…5647 Down +47 $30 $30 1 05-06 22:46
Minty-Drudgery 0x914b…b84a Down +42 $26 $26 1 05-06 22:46
(anonymous) 0x3363…5e3f Up +40 $11 $11 6 05-06 22:46
Coarse-Nonsense 0x8231…c02e Down +35 $25 $25 1 05-06 22:46
Extraneous-Transom 0x1e4b…0a04 Down +32 $22 $22 6 05-06 22:46
Colorful-Outline 0xc16b…a93d Up +31 $11 $11 2 05-06 22:46
Whispered-Lime 0x43f2…e2dc Down +30 $20 $20 2 05-06 22:46
Enchanting-Donor 0xe357…b709 Down +30 $20 $20 1 05-06 22:46
Reckless-Flytrap 0x36b5…52ad Down +30 $18 $18 1 05-06 22:46
Thrifty-Endothelium 0xf183…7e8e Up +27 $10 $10 1 05-06 22:46
Realistic-Solidarity 0xde52…5815 Up +26 $10 $10 2 05-06 22:46
(anonymous) 0xe548…2ecf Down +19 $14 $14 2 05-06 22:46
Shallow-Tale 0x20ac…c4a8 Up +19 $5 $5 1 05-06 22:46
Forceful-Sponsor 0xefec…daae Up +19 $5 $5 1 05-06 22:46
Oily-Shoot-Role 0x500d…98be Up +18 $5 $5 1 05-06 22:46
(anonymous) 0x6e7f…140f Down +17 $10 $10 1 05-06 22:46
Large-Cartilage 0x2b91…c76b Up +16 $5 $5 1 05-06 22:46
Informal-Blight 0xb7a2…e144 Down +15 $10 $10 3 05-06 22:46
Thick-Measles 0xb6ef…5eb0 Down +15 $11 $11 3 05-06 22:46
Ancient-Mineral 0xf0de…3c33 Down +15 $11 $11 1 05-06 22:46
(anonymous) 0x7330…ce87 Down +15 $10 $10 3 05-06 22:46
Nutritious-Protection 0x4546…41d4 Up +14 $5 $5 1 05-06 22:46
Buttery-Pathology 0x372f…3064 Down +14 $10 $10 1 05-06 22:46
Infatuated-Efficiency 0x75ba…3b56 Up +13 $5 $5 1 05-06 22:46
Belated-Checkout 0x88be…97d3 Down +13 $8 $8 1 05-06 22:46
Robust-Mosque 0x524d…4982 Up +13 $5 $5 1 05-06 22:46
Respectful-Cupboard 0x97bd…f649 Up +13 $5 $5 1 05-06 22:46
Precious-Command-Breakpoint 0x1510…e092 Up +12 $5 $5 1 05-06 22:46
Tight-Gasket 0x3c54…60bf Up +12 $5 $5 1 05-06 22:46
Multicolored-Whale 0x05dc…5df8 Up +12 $5 $5 1 05-06 22:46
Deep-Organ 0x2434…c1db Up +12 $5 $5 1 05-06 22:46
Sunny-Adrenaline 0xcef9…cb4d Up +12 $5 $5 1 05-06 22:46
Biodegradable-Slapstick-Laugh 0xf841…cdc8 Up +10 $4 $4 2 05-06 22:46
Ornate-Viability 0x02ff…b7f3 Up +10 $4 $4 1 05-06 22:46
(anonymous) 0x4cc6…531d Up +10 $4 $4 1 05-06 22:46
Hideous-Architecture 0x015c…ec11 Down +10 $7 $7 2 05-06 22:46
Sentimental-Differential 0x510a…d77f Down +10 $7 $7 1 05-06 22:46
(anonymous) 0x75cc…3ce1 Down +10 $7 $7 1 05-06 22:46
Worrisome-Drug 0xa504…3429 Up +8 $3 $3 1 05-06 22:46
Darling-Bagpipe 0xbb92…d291 Up +7 $3 $3 3 05-06 22:46
Multicolored-Randomisation 0x83e2…9466 Up +6 $2 $2 1 05-06 22:46